KMRF/MRF METAR and TAF weather

Enter ICAO airport designator
Station Type Date Time Source
KMRF METAR 2020/07/11 01:56 UTC NOAA

KMRF 110156Z AUTO 11014G18KT 10SM CLR 32/14 A3016 RMK AO2 SLP136 T03170139


Station Type Date Time Source
KMRF Decoded METAR 2020/07/11 01:56 UTC NOAA

Marfa, TX, United States (KMRF) 30-22N 104-01W 1481M
Jul 10, 2020 - 09:56 PM EDT / 2020.07.11 0156 UTC
Wind: from the ESE (110 degrees) at 16 MPH (14 KT) gusting to 21 MPH (18 KT):0
Visibility: 10 mile(s):0
Sky conditions: clear
Temperature: 89.1 F (31.7 C)
Dew Point: 57.0 F (13.9 C)
Relative Humidity: 33%
Pressure (altimeter): 30.16 in. Hg (1021 hPa)
ob: KMRF 110156Z AUTO 11014G18KT 10SM CLR 32/14 A3016 RMK AO2 SLP136 T03170139
cycle: 2

Station Type Date Time Source
KMRF TAF UTC NOAA

Error!

Example: see airport list